Time;durP1;ratioP1;P1;durP2;ratioP2;P2;SDS_P1;SDS_P2;PMS_P1;PMS_P2;Temp;Humidity;BMP_temperature;BMP_pressure;BME280_temperature;BME280_humidity;BME280_pressure;Samples;Min_cycle;Max_cycle;Signal;HPM_P1;HPM_P2
2021/06/08 00:00:59;;;;;;;38.78;30.92;;;17.20;94.90;;;;;;5012087;28;20021;-52
2021/06/08 00:03:24;;;;;;;38.55;32.10;;;17.20;94.90;;;;;;4995560;28;20040;-53
2021/06/08 00:05:50;;;;;;;35.30;30.58;;;16.90;95.50;;;;;;5012207;28;20584;-51
2021/06/08 00:08:16;;;;;;;36.00;29.65;;;17.00;95.40;;;;;;5020928;28;20033;-49
2021/06/08 00:10:41;;;;;;;36.97;30.80;;;17.00;95.40;;;;;;5015915;28;20112;-53
2021/06/08 00:13:07;;;;;;;39.20;31.58;;;16.80;95.80;;;;;;5013916;28;20041;-55
2021/06/08 00:15:33;;;;;;;40.92;33.50;;;16.80;95.80;;;;;;5017894;28;20034;-54
2021/06/08 00:17:59;;;;;;;41.70;32.38;;;16.80;95.80;;;;;;5011895;28;20108;-49
2021/06/08 00:20:24;;;;;;;37.47;30.27;;;16.70;95.90;;;;;;5019696;28;20038;-51
2021/06/08 00:22:50;;;;;;;40.20;30.55;;;16.80;95.70;;;;;;5011705;28;20053;-56
2021/06/08 00:25:16;;;;;;;36.00;30.25;;;16.70;95.90;;;;;;5026757;28;20473;-52
2021/06/08 00:27:41;;;;;;;35.85;29.50;;;16.80;95.60;;;;;;5011722;28;20477;-56
2021/06/08 00:30:08;;;;;;;39.47;31.65;;;16.90;95.60;;;;;;5026820;28;20137;-51
2021/06/08 00:32:33;;;;;;;37.30;30.48;;;17.00;95.30;;;;;;5017669;28;20092;-55
2021/06/08 00:34:59;;;;;;;36.80;30.20;;;17.00;95.30;;;;;;4995283;28;20042;-51
2021/06/08 00:37:24;;;;;;;39.22;30.00;;;16.80;95.70;;;;;;5021893;28;20029;-51
2021/06/08 00:39:52;;;;;;;38.88;31.17;;;16.90;95.40;;;;;;5023947;28;20041;-51
2021/06/08 00:42:29;;;;;;;37.38;30.35;;;16.90;95.40;;;;;;5017080;28;20443;-54
2021/06/08 00:44:55;;;;;;;39.47;31.83;;;16.70;95.70;;;;;;5022507;28;20033;-53
2021/06/08 00:47:20;;;;;;;38.85;31.42;;;16.50;96.10;;;;;;5011657;28;20378;-54
2021/06/08 00:49:46;;;;;;;36.70;30.15;;;16.60;95.90;;;;;;5022449;28;20448;-52
2021/06/08 00:52:12;;;;;;;40.17;31.45;;;16.70;95.80;;;;;;5011615;28;20421;-54
2021/06/08 00:54:37;;;;;;;39.00;31.75;;;16.90;95.20;;;;;;5022446;28;20040;-53
2021/06/08 00:57:03;;;;;;;37.50;29.48;;;16.70;95.50;;;;;;5000625;28;20036;-50
2021/06/08 00:59:29;;;;;;;44.70;31.83;;;16.80;95.50;;;;;;5021467;28;20173;-49
2021/06/08 01:01:54;;;;;;;37.92;31.88;;;16.70;95.80;;;;;;5011425;28;20045;-53
2021/06/08 01:04:20;;;;;;;39.88;32.55;;;16.80;95.50;;;;;;5001845;28;20116;-51
2021/06/08 01:06:48;;;;;;;46.38;33.60;;;16.70;95.50;;;;;;5016360;28;20124;-51
2021/06/08 01:09:13;;;;;;;41.17;32.42;;;16.50;96.10;;;;;;5017407;28;20029;-49
2021/06/08 01:11:39;;;;;;;42.65;32.42;;;16.60;95.90;;;;;;5000411;28;20038;-51
2021/06/08 01:14:05;;;;;;;41.30;33.03;;;16.60;96.00;;;;;;5016110;28;20053;-52
2021/06/08 01:16:32;;;;;;;38.25;31.58;;;16.70;95.70;;;;;;5023532;28;20489;-53
2021/06/08 01:18:58;;;;;;;40.10;32.83;;;16.60;95.90;;;;;;5017584;28;20033;-48
2021/06/08 01:21:23;;;;;;;42.50;33.53;;;16.60;95.80;;;;;;5025535;28;20241;-50
2021/06/08 01:23:49;;;;;;;40.70;31.90;;;16.70;95.80;;;;;;5016252;28;20121;-51
2021/06/08 01:26:16;;;;;;;35.45;30.73;;;16.70;95.70;;;;;;5027318;28;20567;-55
2021/06/08 01:28:42;;;;;;;39.72;33.40;;;16.80;95.60;;;;;;5014526;28;20049;-53
2021/06/08 01:31:11;;;;;;;41.17;32.58;;;16.70;95.80;;;;;;5027860;28;20113;-54
2021/06/08 01:33:42;;;;;;;39.55;32.20;;;16.50;96.30;;;;;;5009000;28;20033;-52
2021/06/08 01:36:11;;;;;;;42.58;34.03;;;16.60;96.00;;;;;;5028490;28;20025;-54
2021/06/08 01:38:38;;;;;;;43.72;33.17;;;16.70;96.10;;;;;;5014442;28;20069;-53
2021/06/08 01:41:04;;;;;;;44.60;34.50;;;16.60;95.80;;;;;;5017704;28;20026;-53
2021/06/08 01:43:30;;;;;;;42.28;34.28;;;16.90;95.50;;;;;;5014399;28;20084;-52
2021/06/08 01:45:56;;;;;;;46.05;36.30;;;16.70;95.80;;;;;;5015715;28;20045;-52
2021/06/08 01:48:22;;;;;;;43.72;35.80;;;16.40;96.40;;;;;;5014425;28;20022;-53
2021/06/08 01:50:50;;;;;;;46.28;36.67;;;16.40;96.50;;;;;;5015790;28;20038;-54
2021/06/08 01:53:36;;;;;;;44.83;35.47;;;16.40;96.40;;;;;;5017426;28;20592;-54
2021/06/08 01:56:07;;;;;;;47.10;35.20;;;16.40;96.40;;;;;;5020134;28;20684;-52
2021/06/08 01:58:52;;;;;;;45.53;34.08;;;16.50;96.30;;;;;;5014042;28;20545;-50
2021/06/08 02:01:23;;;;;;;47.22;34.67;;;16.70;95.90;;;;;;5014580;28;20034;-51
2021/06/08 02:04:03;;;;;;;43.30;34.58;;;16.60;96.10;;;;;;5014527;28;20034;-49
2021/06/08 02:06:42;;;;;;;44.50;34.90;;;16.50;96.10;;;;;;5014894;28;20040;-49
2021/06/08 02:09:18;;;;;;;47.35;36.00;;;16.60;96.20;;;;;;5013824;28;20490;-52
2021/06/08 02:12:00;;;;;;;41.40;33.15;;;16.50;96.40;;;;;;5018863;28;20501;-51
2021/06/08 02:14:38;;;;;;;41.90;34.72;;;16.70;96.00;;;;;;5014545;28;20034;-51
2021/06/08 02:17:15;;;;;;;42.72;35.17;;;16.70;95.90;;;;;;5018086;28;20482;-51
2021/06/08 02:19:45;;;;;;;46.63;36.65;;;16.60;96.00;;;;;;5015740;28;20033;-54
2021/06/08 02:22:12;;;;;;;43.55;35.28;;;16.60;96.00;;;;;;5018302;28;20042;-49
2021/06/08 02:24:38;;;;;;;44.40;35.65;;;16.50;96.20;;;;;;5024222;28;20034;-52
2021/06/08 02:27:07;;;;;;;49.80;38.47;;;16.50;96.20;;;;;;5016312;28;20548;-53
2021/06/08 02:29:33;;;;;;;46.35;35.92;;;16.40;96.60;;;;;;5013814;28;20034;-56
2021/06/08 02:32:00;;;;;;;44.10;35.67;;;16.50;96.30;;;;;;5012547;28;20034;-53
2021/06/08 02:34:28;;;;;;;44.67;34.28;;;16.60;96.20;;;;;;5008534;28;20029;-49
2021/06/08 02:36:54;;;;;;;48.63;37.95;;;16.70;95.90;;;;;;5013631;28;20025;-58
2021/06/08 02:39:22;;;;;;;47.45;36.58;;;16.60;96.10;;;;;;5013642;28;20034;-49
2021/06/08 02:41:48;;;;;;;41.53;34.75;;;16.50;96.50;;;;;;5016127;28;20025;-50
2021/06/08 02:44:14;;;;;;;47.05;35.92;;;16.70;96.00;;;;;;5014786;28;20080;-49
2021/06/08 02:46:40;;;;;;;43.72;35.72;;;16.70;95.80;;;;;;5013704;28;20030;-53
2021/06/08 02:49:07;;;;;;;42.33;34.97;;;16.90;95.80;;;;;;5026499;28;20029;-48
2021/06/08 02:51:35;;;;;;;42.25;34.42;;;16.90;95.70;;;;;;5014158;28;20060;-50
2021/06/08 02:54:02;;;;;;;42.53;34.45;;;16.90;95.70;;;;;;5023622;28;20416;-51
2021/06/08 02:56:28;;;;;;;44.30;34.67;;;16.90;95.70;;;;;;5014418;28;20176;-49
2021/06/08 02:58:54;;;;;;;45.58;35.15;;;16.80;95.70;;;;;;5017036;28;20549;-53
2021/06/08 03:01:41;;;;;;;50.17;37.95;;;16.80;96.00;;;;;;4999639;28;20073;-48
2021/06/08 03:04:09;;;;;;;52.03;39.08;;;16.70;96.00;;;;;;5016567;28;20053;-51
2021/06/08 03:06:42;;;;;;;45.78;37.25;;;16.50;96.40;;;;;;5013376;28;20030;-54
2021/06/08 03:09:13;;;;;;;49.03;39.17;;;16.50;96.50;;;;;;5016885;28;20561;-52
2021/06/08 03:11:49;;;;;;;54.95;37.15;;;16.40;96.80;;;;;;5013427;28;20397;-53
2021/06/08 03:14:16;;;;;;;51.95;40.75;;;16.20;97.30;;;;;;5017415;28;20045;-53
2021/06/08 03:16:47;;;;;;;54.80;41.35;;;16.30;97.00;;;;;;5012328;28;20036;-59
2021/06/08 03:19:17;;;;;;;50.95;41.13;;;16.00;97.50;;;;;;5017445;28;20112;-54
2021/06/08 03:21:43;;;;;;;54.65;40.58;;;16.00;97.80;;;;;;5013091;28;20030;-53
2021/06/08 03:24:13;;;;;;;48.28;39.80;;;16.10;97.40;;;;;;5017322;28;20113;-50
2021/06/08 03:26:42;;;;;;;51.17;39.53;;;16.00;97.80;;;;;;5019719;28;20022;-50
2021/06/08 03:29:10;;;;;;;49.80;39.80;;;16.30;97.10;;;;;;5017480;28;20124;-53
2021/06/08 03:31:39;;;;;;;49.95;38.55;;;16.40;96.80;;;;;;5012551;28;20576;-53
2021/06/08 03:34:06;;;;;;;52.22;38.30;;;16.50;96.60;;;;;;5017992;28;20034;-50
2021/06/08 03:36:34;;;;;;;45.55;37.20;;;16.60;96.30;;;;;;5012854;28;20129;-53
2021/06/08 03:39:00;;;;;;;47.08;37.22;;;16.60;96.40;;;;;;5012669;28;20493;-52
2021/06/08 03:41:27;;;;;;;45.13;37.58;;;16.60;96.30;;;;;;5014555;28;20434;-55
2021/06/08 03:43:54;;;;;;;48.15;39.70;;;16.70;96.20;;;;;;5003084;28;20461;-52
2021/06/08 03:46:23;;;;;;;46.40;36.05;;;16.70;96.30;;;;;;5012499;28;20038;-49
2021/06/08 03:48:50;;;;;;;48.28;40.58;;;16.80;96.20;;;;;;5014655;28;20034;-50
2021/06/08 03:51:16;;;;;;;48.38;39.15;;;16.50;96.70;;;;;;5015318;28;20083;-51
2021/06/08 03:53:42;;;;;;;48.60;39.75;;;16.50;96.70;;;;;;5017901;28;20033;-53
2021/06/08 03:56:11;;;;;;;50.65;38.05;;;16.70;96.10;;;;;;5017779;28;20112;-55
2021/06/08 03:58:40;;;;;;;44.92;38.13;;;16.60;96.40;;;;;;5012110;28;20041;-57
2021/06/08 04:01:06;;;;;;;50.45;38.55;;;16.70;96.30;;;;;;5005229;28;20512;-52
2021/06/08 04:03:34;;;;;;;47.55;37.60;;;16.80;96.00;;;;;;5015800;28;20056;-52
2021/06/08 04:06:01;;;;;;;50.95;41.90;;;16.70;96.10;;;;;;5021992;28;20397;-53
2021/06/08 04:08:28;;;;;;;49.42;41.17;;;16.70;96.00;;;;;;5011702;28;20088;-50
2021/06/08 04:10:54;;;;;;;49.22;38.97;;;16.70;96.10;;;;;;5022428;28;20068;-52
2021/06/08 04:13:20;;;;;;;50.10;39.85;;;16.80;96.40;;;;;;5012310;28;20037;-52
2021/06/08 04:15:48;;;;;;;45.88;37.42;;;16.70;96.60;;;;;;5013425;28;20034;-56
2021/06/08 04:18:14;;;;;;;51.88;39.97;;;16.70;96.50;;;;;;5011823;28;20160;-53
2021/06/08 04:20:40;;;;;;;46.35;38.05;;;16.80;96.00;;;;;;5022267;28;20547;-55
2021/06/08 04:23:06;;;;;;;51.40;40.30;;;16.90;95.90;;;;;;5003799;28;20043;-52
2021/06/08 04:25:31;;;;;;;52.40;40.53;;;16.90;95.70;;;;;;5027097;28;20029;-54
2021/06/08 04:27:57;;;;;;;46.38;36.83;;;16.90;95.90;;;;;;5011784;28;20034;-56
2021/06/08 04:30:23;;;;;;;46.33;37.13;;;17.00;95.80;;;;;;5018208;28;20063;-53
2021/06/08 04:32:50;;;;;;;45.13;37.85;;;17.10;95.70;;;;;;5021579;28;20041;-54
2021/06/08 04:35:17;;;;;;;42.78;37.00;;;17.10;96.00;;;;;;5020073;28;20037;-54
2021/06/08 04:37:43;;;;;;;46.85;38.25;;;17.00;95.90;;;;;;5011477;28;20521;-51
2021/06/08 04:40:10;;;;;;;48.13;40.42;;;17.00;96.00;;;;;;5018244;28;20543;-49
2021/06/08 04:42:42;;;;;;;49.22;38.70;;;17.10;95.50;;;;;;5015013;28;20408;-54
2021/06/08 04:45:09;;;;;;;45.75;38.58;;;17.20;95.50;;;;;;5023519;28;20120;-51
2021/06/08 04:47:34;;;;;;;48.80;39.33;;;17.10;95.70;;;;;;5011574;28;20088;-50
2021/06/08 04:50:00;;;;;;;45.70;36.65;;;17.00;96.00;;;;;;5016488;28;20041;-52
2021/06/08 04:52:26;;;;;;;47.53;39.72;;;17.10;96.00;;;;;;5022947;28;20041;-52
2021/06/08 04:54:51;;;;;;;43.58;37.15;;;17.20;95.60;;;;;;5024693;28;20478;-55
2021/06/08 04:57:17;;;;;;;41.53;36.20;;;17.30;95.30;;;;;;5015210;28;20026;-51
2021/06/08 05:00:05;;;;;;;47.38;38.70;;;17.50;95.00;;;;;;5015692;28;20026;-53
2021/06/08 05:02:43;;;;;;;43.47;37.05;;;17.60;95.00;;;;;;5015766;28;20061;-52
2021/06/08 05:05:29;;;;;;;42.90;38.15;;;17.70;94.70;;;;;;5015507;28;20034;-58
2021/06/08 05:08:09;;;;;;;44.03;37.63;;;17.50;95.10;;;;;;5017173;28;20441;-53
2021/06/08 05:10:39;;;;;;;44.00;37.60;;;17.70;94.70;;;;;;5029543;28;20469;-55
2021/06/08 05:13:08;;;;;;;44.03;37.20;;;17.70;94.70;;;;;;5015475;28;20042;-51
2021/06/08 05:15:36;;;;;;;46.20;38.05;;;17.80;94.60;;;;;;5018628;28;20077;-51
2021/06/08 05:18:04;;;;;;;49.75;40.45;;;17.90;94.50;;;;;;5031558;28;20092;-54
2021/06/08 05:20:31;;;;;;;46.53;37.03;;;18.00;94.40;;;;;;5004462;28;20034;-55
2021/06/08 05:22:56;;;;;;;50.00;38.05;;;18.00;94.30;;;;;;5027347;28;20082;-55
2021/06/08 05:25:22;;;;;;;42.92;36.40;;;18.10;94.20;;;;;;5022150;28;20401;-51
2021/06/08 05:27:48;;;;;;;49.53;40.85;;;18.10;94.20;;;;;;5015478;28;20033;-53
2021/06/08 05:30:14;;;;;;;47.90;41.08;;;18.00;94.40;;;;;;5017518;28;20042;-52
2021/06/08 05:32:44;;;;;;;49.85;41.38;;;17.80;94.90;;;;;;5015418;28;20064;-54
2021/06/08 05:35:10;;;;;;;51.40;39.67;;;17.70;95.30;;;;;;5015869;28;20389;-54
2021/06/08 05:37:43;;;;;;;51.65;43.92;;;17.80;95.10;;;;;;5014883;28;20110;-51
2021/06/08 05:40:10;;;;;;;48.50;41.05;;;17.50;95.60;;;;;;5015062;28;20053;-51
2021/06/08 05:42:36;;;;;;;51.65;42.42;;;17.70;95.50;;;;;;5014212;28;20034;-53
2021/06/08 05:45:03;;;;;;;51.20;45.25;;;17.80;95.30;;;;;;5021748;28;20040;-54
2021/06/08 05:47:29;;;;;;;52.67;44.90;;;17.50;95.70;;;;;;5023742;28;20029;-54
2021/06/08 05:49:54;;;;;;;53.30;44.53;;;17.40;95.90;;;;;;5022037;28;20030;-51
2021/06/08 05:52:20;;;;;;;57.20;44.35;;;17.40;96.20;;;;;;5033410;28;20041;-50
2021/06/08 05:54:46;;;;;;;50.67;41.50;;;17.50;96.00;;;;;;5008592;28;20037;-52
2021/06/08 05:57:13;;;;;;;55.33;45.90;;;17.60;95.70;;;;;;5017197;28;20022;-49
2021/06/08 05:59:38;;;;;;;51.75;43.83;;;17.60;95.90;;;;;;5019639;28;20100;-55
2021/06/08 06:02:05;;;;;;;54.78;46.25;;;17.60;95.70;;;;;;5014057;28;20025;-55
2021/06/08 06:04:31;;;;;;;53.80;45.25;;;17.80;95.50;;;;;;5015842;28;20048;-51
2021/06/08 06:06:58;;;;;;;54.13;44.00;;;17.90;95.40;;;;;;5014542;28;20414;-50
2021/06/08 06:09:25;;;;;;;52.30;44.20;;;17.90;95.30;;;;;;5025118;28;20042;-54
2021/06/08 06:11:52;;;;;;;55.25;46.20;;;17.80;95.40;;;;;;5013820;28;20037;-51
2021/06/08 06:14:23;;;;;;;54.65;46.10;;;18.00;94.90;;;;;;5014722;28;20033;-57
2021/06/08 06:16:52;;;;;;;56.55;45.20;;;18.20;94.90;;;;;;5017633;28;20492;-57
2021/06/08 06:19:22;;;;;;;58.35;45.25;;;18.30;94.80;;;;;;5025399;28;20045;-56
2021/06/08 06:21:49;;;;;;;53.75;45.08;;;18.30;94.60;;;;;;5015860;28;20038;-52
2021/06/08 06:24:15;;;;;;;56.35;43.40;;;18.40;94.70;;;;;;5032154;28;20060;-52
2021/06/08 06:26:42;;;;;;;50.25;44.47;;;18.50;94.50;;;;;;5020647;28;20033;-52
2021/06/08 06:29:09;;;;;;;48.80;43.15;;;18.50;94.20;;;;;;5018381;28;20033;-51
2021/06/08 06:31:36;;;;;;;48.45;43.13;;;18.60;94.10;;;;;;5022638;28;20037;-54
2021/06/08 06:34:02;;;;;;;51.33;43.55;;;18.60;94.10;;;;;;5014875;28;20555;-53
2021/06/08 06:36:30;;;;;;;53.03;47.03;;;18.60;93.80;;;;;;5015049;28;20042;-54
2021/06/08 06:39:03;;;;;;;53.42;45.50;;;18.50;94.20;;;;;;5013726;28;20050;-50
2021/06/08 06:41:31;;;;;;;52.05;44.75;;;18.60;94.00;;;;;;4989287;28;20030;-53
2021/06/08 06:43:58;;;;;;;49.92;43.85;;;18.60;93.90;;;;;;5014158;28;20037;-53
2021/06/08 06:46:23;;;;;;;50.95;44.70;;;18.60;93.90;;;;;;5013750;28;20077;-51
2021/06/08 06:48:56;;;;;;;49.97;44.10;;;18.60;93.80;;;;;;5024754;28;20061;-54
2021/06/08 06:51:22;;;;;;;50.35;43.33;;;18.60;93.90;;;;;;5013185;28;20048;-54
2021/06/08 06:53:48;;;;;;;48.15;42.95;;;18.80;93.50;;;;;;5024101;28;20029;-57
2021/06/08 06:56:15;;;;;;;49.75;44.33;;;18.80;93.60;;;;;;5015549;28;20049;-55
2021/06/08 06:58:42;;;;;;;51.15;44.08;;;18.70;93.60;;;;;;5022893;28;20042;-54
2021/06/08 07:01:08;;;;;;;50.53;45.00;;;18.60;93.80;;;;;;5022273;28;20067;-55
2021/06/08 07:03:35;;;;;;;50.35;44.65;;;18.70;93.80;;;;;;5016673;28;20053;-54
2021/06/08 07:06:01;;;;;;;55.63;45.67;;;18.50;93.90;;;;;;5018275;28;20026;-51
2021/06/08 07:08:29;;;;;;;51.85;43.65;;;18.40;94.10;;;;;;5018545;28;20119;-50
2021/06/08 07:10:56;;;;;;;54.35;45.65;;;18.50;94.00;;;;;;5014592;28;20035;-54
2021/06/08 07:13:22;;;;;;;49.72;44.33;;;18.80;93.80;;;;;;5013636;28;20061;-53
2021/06/08 07:15:49;;;;;;;55.78;45.10;;;18.80;93.70;;;;;;5016453;28;20448;-53
2021/06/08 07:18:16;;;;;;;51.63;42.83;;;18.90;93.50;;;;;;5012355;28;20108;-56
2021/06/08 07:20:42;;;;;;;52.88;44.47;;;18.90;93.60;;;;;;5013209;28;20026;-55
2021/06/08 07:23:08;;;;;;;51.72;46.20;;;19.00;93.40;;;;;;5012992;28;20528;-56
2021/06/08 07:25:38;;;;;;;51.05;43.30;;;18.70;93.80;;;;;;5020559;28;20037;-51
2021/06/08 07:28:09;;;;;;;53.63;45.80;;;18.60;94.30;;;;;;5012416;28;20037;-55
2021/06/08 07:30:36;;;;;;;54.92;46.60;;;18.70;94.00;;;;;;5014143;28;20402;-54
2021/06/08 07:33:13;;;;;;;53.83;46.08;;;18.60;94.10;;;;;;5013141;28;20390;-52
2021/06/08 07:36:03;;;;;;;52.85;45.50;;;18.50;94.40;;;;;;5013803;28;20066;-57
2021/06/08 07:38:56;;;;;;;52.15;44.85;;;18.80;93.80;;;;;;5012303;28;20022;-55
2021/06/08 07:41:39;;;;;;;50.75;43.70;;;18.90;93.40;;;;;;5021026;28;20033;-54
2021/06/08 07:44:09;;;;;;;53.53;47.55;;;18.90;93.40;;;;;;5014516;28;20030;-56
2021/06/08 07:46:38;;;;;;;52.80;47.15;;;18.90;93.50;;;;;;5026091;28;20034;-56
2021/06/08 07:49:06;;;;;;;53.80;46.08;;;19.10;93.40;;;;;;5013471;28;20038;-51
2021/06/08 07:51:33;;;;;;;50.20;44.72;;;19.30;93.30;;;;;;5012802;28;20069;-51
2021/06/08 07:53:59;;;;;;;51.17;45.67;;;19.40;92.90;;;;;;5020696;28;20520;-52
2021/06/08 07:56:26;;;;;;;49.05;43.63;;;19.60;92.70;;;;;;5013223;28;20038;-53
2021/06/08 07:58:52;;;;;;;49.45;43.88;;;19.90;92.30;;;;;;5011913;28;20089;-54
2021/06/08 08:01:20;;;;;;;49.20;43.47;;;19.80;92.20;;;;;;5012489;28;20034;-53
2021/06/08 08:03:47;;;;;;;52.28;45.72;;;19.80;92.40;;;;;;5012239;28;20041;-48
2021/06/08 08:06:15;;;;;;;50.28;43.97;;;20.00;92.00;;;;;;5012279;28;20041;-55
2021/06/08 08:08:41;;;;;;;54.65;45.58;;;20.00;91.80;;;;;;5011670;28;20037;-52
2021/06/08 08:11:14;;;;;;;48.45;43.17;;;19.90;92.00;;;;;;5015958;28;20034;-53
2021/06/08 08:13:41;;;;;;;53.00;44.95;;;19.90;92.20;;;;;;5012225;28;20045;-55
2021/06/08 08:16:09;;;;;;;51.53;43.30;;;19.80;92.30;;;;;;5012148;28;20512;-56
2021/06/08 08:18:36;;;;;;;53.83;47.40;;;19.70;92.70;;;;;;5011632;28;20108;-56
2021/06/08 08:21:06;;;;;;;53.17;46.25;;;19.70;92.50;;;;;;5012144;28;20096;-54
2021/06/08 08:23:32;;;;;;;54.20;46.08;;;19.60;92.50;;;;;;5012183;28;20042;-54
2021/06/08 08:26:00;;;;;;;54.58;48.45;;;19.70;92.60;;;;;;5019450;28;20038;-53
2021/06/08 08:28:26;;;;;;;56.00;49.25;;;19.50;92.90;;;;;;5015677;28;20038;-55
2021/06/08 08:30:53;;;;;;;59.20;50.00;;;19.70;92.70;;;;;;5013289;28;20037;-54
2021/06/08 08:33:21;;;;;;;56.47;47.50;;;19.90;92.30;;;;;;5011596;28;20030;-54
2021/06/08 08:35:46;;;;;;;56.38;49.20;;;20.00;92.30;;;;;;5011997;28;20033;-54
2021/06/08 08:38:13;;;;;;;59.40;47.30;;;20.20;91.90;;;;;;5011624;28;20393;-53
2021/06/08 08:40:39;;;;;;;53.30;47.50;;;20.40;91.80;;;;;;5011602;28;20371;-54
2021/06/08 08:43:05;;;;;;;49.03;43.45;;;20.40;91.40;;;;;;5013327;28;20095;-52
2021/06/08 08:45:32;;;;;;;49.97;44.55;;;20.60;91.10;;;;;;5016677;28;20099;-51
2021/06/08 08:47:58;;;;;;;51.85;46.13;;;20.60;91.20;;;;;;5017112;28;20107;-55
2021/06/08 08:50:25;;;;;;;53.30;47.60;;;20.80;90.90;;;;;;5029883;28;20044;-53
2021/06/08 08:52:56;;;;;;;53.75;47.92;;;21.00;90.60;;;;;;5028469;28;20082;-55
2021/06/08 08:55:26;;;;;;;54.92;47.67;;;21.20;90.20;;;;;;5026148;28;20026;-51
2021/06/08 08:57:54;;;;;;;50.30;44.60;;;21.20;90.20;;;;;;5026968;28;20114;-53
2021/06/08 09:00:22;;;;;;;50.80;45.58;;;21.30;90.00;;;;;;5029697;28;20021;-53
2021/06/08 09:02:49;;;;;;;51.17;45.67;;;21.50;89.70;;;;;;5018464;28;20038;-53
2021/06/08 09:05:15;;;;;;;54.92;46.17;;;21.60;89.00;;;;;;5028837;28;20495;-54
2021/06/08 09:07:40;;;;;;;50.22;45.00;;;21.50;89.30;;;;;;5028771;28;20104;-55
2021/06/08 09:10:09;;;;;;;55.97;48.35;;;21.30;89.90;;;;;;5022331;28;20493;-48
2021/06/08 09:12:36;;;;;;;49.63;44.28;;;21.40;89.50;;;;;;5012537;28;20500;-56
2021/06/08 09:15:03;;;;;;;53.13;46.65;;;21.50;89.60;;;;;;5013842;28;20060;-55
2021/06/08 09:17:30;;;;;;;51.10;45.03;;;21.00;90.60;;;;;;5017185;28;20037;-56
2021/06/08 09:19:56;;;;;;;48.25;43.20;;;20.90;90.90;;;;;;5013589;28;20397;-54
2021/06/08 09:22:23;;;;;;;51.47;45.75;;;21.10;90.60;;;;;;5016596;28;20037;-55
2021/06/08 09:24:54;;;;;;;50.55;44.97;;;21.30;90.40;;;;;;5012442;28;20513;-54
2021/06/08 09:27:28;;;;;;;48.25;43.25;;;21.60;89.80;;;;;;5010770;28;20053;-53
2021/06/08 09:29:54;;;;;;;48.83;43.67;;;21.70;89.10;;;;;;5024675;28;20045;-53
2021/06/08 09:32:24;;;;;;;58.42;51.05;;;21.70;89.50;;;;;;5027014;28;20048;-52
2021/06/08 09:35:00;;;;;;;52.95;45.95;;;21.80;89.30;;;;;;5030014;28;20033;-58
2021/06/08 09:37:29;;;;;;;50.53;42.60;;;22.10;88.50;;;;;;5036189;28;20037;-54
2021/06/08 09:39:54;;;;;;;48.00;42.97;;;22.20;88.40;;;;;;5020873;28;20085;-52
2021/06/08 09:42:23;;;;;;;49.55;44.17;;;22.40;87.40;;;;;;5026776;28;20116;-54
2021/06/08 09:44:49;;;;;;;47.58;42.47;;;22.40;87.10;;;;;;5035602;28;20448;-56
2021/06/08 09:47:26;;;;;;;46.58;41.63;;;22.50;87.60;;;;;;5016302;28;20684;-53
2021/06/08 09:49:51;;;;;;;51.83;44.50;;;22.60;87.00;;;;;;5031218;28;20056;-56
2021/06/08 09:52:18;;;;;;;49.42;43.78;;;22.50;88.10;;;;;;5019551;28;20030;-53
2021/06/08 09:54:46;;;;;;;47.53;42.45;;;22.60;87.30;;;;;;5016896;28;20092;-54
2021/06/08 09:57:12;;;;;;;50.85;42.63;;;22.90;87.20;;;;;;5014882;28;20128;-56
2021/06/08 09:59:43;;;;;;;49.33;44.08;;;23.00;86.70;;;;;;5019614;28;20424;-56
2021/06/08 10:05:15;;;;;;;45.63;40.58;;;23.20;85.40;;;;;;5028667;28;20120;-51
2021/06/08 10:07:41;;;;;;;43.42;38.90;;;23.20;85.30;;;;;;5023430;28;20112;-58
2021/06/08 10:10:10;;;;;;;46.75;41.88;;;23.20;85.40;;;;;;5026590;28;20026;-57
2021/06/08 10:13:12;;;;;;;45.05;40.40;;;23.30;84.90;;;;;;5014963;28;20053;-56
2021/06/08 10:15:49;;;;;;;43.03;38.40;;;23.20;85.40;;;;;;5024479;28;20107;-57
2021/06/08 10:18:15;;;;;;;43.38;38.53;;;23.20;85.40;;;;;;5021062;28;20022;-53
2021/06/08 10:20:50;;;;;;;40.90;36.53;;;23.40;85.30;;;;;;5014405;28;20397;-58
2021/06/08 10:23:26;;;;;;;38.72;34.80;;;23.60;84.80;;;;;;5013808;28;20120;-55
2021/06/08 10:26:01;;;;;;;46.28;39.10;;;23.80;84.00;;;;;;5024665;28;20069;-55
2021/06/08 10:28:27;;;;;;;42.80;38.40;;;23.70;84.10;;;;;;5013516;28;20087;-55
2021/06/08 10:30:55;;;;;;;43.50;38.83;;;23.60;84.50;;;;;;5025211;28;20029;-53
2021/06/08 10:33:22;;;;;;;46.42;41.58;;;23.60;84.70;;;;;;5014346;28;20034;-56
2021/06/08 10:35:49;;;;;;;42.70;38.10;;;23.40;84.70;;;;;;5025127;28;20038;-55
2021/06/08 10:38:15;;;;;;;44.35;39.78;;;23.30;84.80;;;;;;5013026;28;20033;-52
2021/06/08 10:40:42;;;;;;;47.50;42.67;;;23.30;85.10;;;;;;5023947;28;20049;-52
2021/06/08 10:43:29;;;;;;;41.25;36.95;;;23.30;85.40;;;;;;5013980;28;20108;-54
2021/06/08 10:45:56;;;;;;;42.20;37.85;;;23.70;85.20;;;;;;5029292;28;20374;-55
2021/06/08 10:48:29;;;;;;;43.67;39.05;;;23.80;84.20;;;;;;5011635;28;20030;-58
2021/06/08 10:51:13;;;;;;;43.75;39.25;;;23.70;84.50;;;;;;5017823;28;20432;-57
2021/06/08 10:53:43;;;;;;;42.55;38.30;;;23.20;85.90;;;;;;5014256;28;20034;-53
2021/06/08 10:56:38;;;;;;;46.88;41.17;;;22.90;86.80;;;;;;5018633;28;20033;-50
2021/06/08 10:59:05;;;;;;;43.60;39.10;;;22.80;87.20;;;;;;5005728;28;20112;-53
2021/06/08 11:01:33;;;;;;;46.95;41.13;;;22.70;87.50;;;;;;5013763;28;20084;-56
2021/06/08 11:04:04;;;;;;;43.08;38.50;;;22.70;87.20;;;;;;5026126;28;20493;-54
2021/06/08 11:06:49;;;;;;;41.55;36.97;;;22.80;87.10;;;;;;5013409;28;20100;-55
2021/06/08 11:09:24;;;;;;;43.00;37.17;;;22.80;87.10;;;;;;5014407;28;20127;-55
2021/06/08 11:12:08;;;;;;;42.20;37.47;;;23.00;86.30;;;;;;5012538;28;20042;-52
2021/06/08 11:14:44;;;;;;;38.53;34.67;;;23.30;85.40;;;;;;5020433;28;20026;-59
2021/06/08 11:17:19;;;;;;;38.88;34.60;;;23.50;84.40;;;;;;5019049;28;20033;-52
2021/06/08 11:20:01;;;;;;;35.30;31.60;;;23.60;83.90;;;;;;4995587;28;20057;-51
2021/06/08 11:22:33;;;;;;;39.60;34.95;;;23.80;83.60;;;;;;5012689;28;20117;-53
2021/06/08 11:25:00;;;;;;;38.20;34.30;;;23.60;84.10;;;;;;5019785;28;20048;-48
2021/06/08 11:27:56;;;;;;;40.20;36.10;;;23.70;84.00;;;;;;5013781;28;20057;-48
2021/06/08 11:30:25;;;;;;;37.92;33.90;;;24.00;82.90;;;;;;5025612;28;20022;-50
2021/06/08 11:32:50;;;;;;;40.80;36.25;;;24.10;83.10;;;;;;5022705;28;20134;-51
2021/06/08 11:35:28;;;;;;;39.20;35.08;;;24.00;82.50;;;;;;5018283;28;20109;-52
2021/06/08 11:38:03;;;;;;;35.13;31.23;;;23.90;82.60;;;;;;5016154;28;20040;-52
2021/06/08 11:40:35;;;;;;;38.20;34.25;;;23.90;82.40;;;;;;5013588;28;20029;-54
2021/06/08 11:43:02;;;;;;;39.90;35.67;;;23.90;82.00;;;;;;5018671;28;20065;-51
2021/06/08 11:45:30;;;;;;;44.38;39.83;;;23.70;83.00;;;;;;5023477;28;20054;-52
2021/06/08 11:47:55;;;;;;;36.17;32.40;;;23.80;82.40;;;;;;5019680;28;20109;-51
2021/06/08 11:50:42;;;;;;;37.15;33.38;;;23.80;82.10;;;;;;5023158;28;20116;-53
2021/06/08 11:53:13;;;;;;;35.95;32.15;;;24.00;82.10;;;;;;5021177;28;20037;-54
2021/06/08 11:55:39;;;;;;;34.15;29.77;;;24.10;81.60;;;;;;5014482;28;20084;-53
2021/06/08 11:58:32;;;;;;;39.22;34.75;;;24.10;82.00;;;;;;5017531;28;20066;-51
2021/06/08 12:00:58;;;;;;;36.13;32.45;;;24.00;81.20;;;;;;5014361;28;20041;-52
2021/06/08 12:03:35;;;;;;;37.85;33.95;;;24.10;81.70;;;;;;5020275;28;20053;-48
2021/06/08 12:06:04;;;;;;;42.95;38.42;;;24.30;80.70;;;;;;5019013;28;20072;-54
2021/06/08 12:08:31;;;;;;;40.55;36.20;;;24.30;80.80;;;;;;5014184;28;20038;-48
2021/06/08 12:11:16;;;;;;;49.33;44.22;;;24.20;81.70;;;;;;5017053;28;20060;-56
2021/06/08 12:13:43;;;;;;;39.10;34.95;;;24.30;81.30;;;;;;5011247;28;20390;-53
2021/06/08 12:16:16;;;;;;;44.05;39.30;;;24.70;80.90;;;;;;5013482;28;20030;-54
2021/06/08 12:18:42;;;;;;;40.53;36.33;;;24.90;78.70;;;;;;5021055;28;20045;-54
2021/06/08 12:21:15;;;;;;;40.72;36.08;;;24.80;79.40;;;;;;5013094;28;20030;-53
2021/06/08 12:23:42;;;;;;;39.70;35.35;;;24.90;79.30;;;;;;4997292;28;20126;-56
2021/06/08 12:26:08;;;;;;;37.80;34.05;;;24.60;80.00;;;;;;5024736;28;20034;-53
2021/06/08 12:28:34;;;;;;;34.95;31.20;;;24.50;80.70;;;;;;5013534;28;20037;-55
2021/06/08 12:31:20;;;;;;;43.20;37.30;;;24.60;80.10;;;;;;5014423;28;20048;-50
2021/06/08 12:33:46;;;;;;;40.15;35.85;;;24.80;79.00;;;;;;5018012;28;20445;-54
2021/06/08 12:36:14;;;;;;;40.95;35.75;;;24.80;79.40;;;;;;5015446;28;20080;-50
2021/06/08 12:38:46;;;;;;;38.22;33.95;;;25.00;78.60;;;;;;5014603;28;20037;-51
2021/06/08 12:41:12;;;;;;;37.60;33.60;;;25.00;78.60;;;;;;5021108;28;20072;-56